Weather at Morrison Heliport

Public forecast

Using degrees Celsius for public forecast. Weather courtesy of forecast.io.

Closest aviation weather report (METAR) to Morrison Heliport

Closest report is Rosario Islas Malvinas International Airport, 82.1 nm (152.0 km) SE.

2024/07/16 19:00 (retrieved 19 minutes ago)

SAAR 161900Z 08005KT 050V110 9999 FEW041 18/09 Q1025

Closest aviation forecast (TAF) to Morrison Heliport

Closest forecast is Rosario Islas Malvinas International Airport, 82.1 nm (152.0 km) SE.

2024/07/16 18:00 (retrieved 1 hour ago)

TAF SAAR 161700Z 1618/1718 05010KT 9999 SCT040 TX19/1618Z TN07/1710Z BECMG 1618/1620 11005KT CAVOK BECMG 1707/1710 4000 BR SCT010 PROB30 TEMPO 1710/1714 1000 BCFG BECMG 1714/1716 36010KT CAVOK